createdAt,value
2022-09-16T00:07:25.807Z,1047.28857
2022-09-16T00:22:28.004Z,878.65735
2022-09-16T00:37:30.321Z,739.18793
2022-09-16T00:52:32.588Z,821.60168
2022-09-16T01:07:34.839Z,926.83771
2022-09-16T01:22:37.071Z,745.52747
2022-09-16T01:37:39.317Z,426.01569
2022-09-16T01:52:41.730Z,205.40042
2022-09-16T02:07:43.988Z,59.59148
2022-09-16T02:22:46.158Z,5.07162
2022-09-16T02:37:48.419Z,0
2022-09-16T02:52:50.701Z,0
2022-09-16T03:07:53.043Z,0
2022-09-16T03:22:55.318Z,0
2022-09-16T03:37:57.557Z,0
2022-09-16T03:52:59.780Z,0
2022-09-16T04:08:01.982Z,0
2022-09-16T04:23:04.254Z,0
2022-09-16T04:38:06.491Z,0
2022-09-16T04:53:08.686Z,0
2022-09-16T05:08:10.915Z,0
2022-09-16T05:23:13.112Z,0
2022-09-16T05:38:15.442Z,0
2022-09-16T05:53:17.838Z,0
2022-09-16T06:08:20.024Z,0
2022-09-16T06:23:22.327Z,0
2022-09-16T06:38:24.619Z,0
2022-09-16T06:53:26.855Z,0
2022-09-16T07:08:29.140Z,0
2022-09-16T07:23:31.336Z,0
2022-09-16T07:38:33.548Z,0
2022-09-16T07:53:36.021Z,0
2022-09-16T08:08:38.249Z,0
2022-09-16T08:23:40.676Z,0
2022-09-16T08:38:42.883Z,0
2022-09-16T08:53:45.178Z,0
2022-09-16T09:08:47.427Z,0
2022-09-16T09:23:49.623Z,0
2022-09-16T09:38:51.868Z,0
2022-09-16T09:53:54.093Z,0
2022-09-16T10:08:56.297Z,0
2022-09-16T10:23:58.526Z,0
2022-09-16T10:39:04.474Z,0
2022-09-16T10:54:07.432Z,0
2022-09-16T11:09:09.722Z,0
2022-09-16T11:24:11.985Z,0
2022-09-16T11:39:14.205Z,0
2022-09-16T11:54:16.587Z,0
2022-09-16T12:09:18.841Z,0
2022-09-16T12:24:21.159Z,0
2022-09-16T12:39:23.373Z,0
2022-09-16T12:54:25.570Z,0
2022-09-16T13:09:27.964Z,10.14323
2022-09-16T13:24:30.378Z,59.59148
2022-09-16T13:39:32.603Z,158.48798
2022-09-16T13:54:43.191Z,257.38446
2022-09-16T14:09:56.026Z,316.97595
2022-09-16T14:25:06.898Z,612.39752
2022-09-16T14:40:21.539Z,1106.88
2022-09-16T14:55:23.883Z,1668.5614
2022-09-16T15:10:26.103Z,1177.88269
2022-09-16T15:25:28.333Z,635.21979
2022-09-16T15:40:30.938Z,297.9574
2022-09-16T15:55:33.233Z,275.13513
2022-09-16T16:10:35.501Z,625.0766
2022-09-16T16:25:37.819Z,853.29926
2022-09-16T16:40:40.157Z,1180.41846
2022-09-16T16:55:42.387Z,1488.51904
2022-09-16T17:10:44.576Z,846.95972
2022-09-16T17:25:46.805Z,1758.58252
2022-09-16T17:40:49.040Z,1441.60657
2022-09-16T17:55:51.301Z,1570.93286
2022-09-16T18:10:53.658Z,2616.95337
2022-09-16T18:25:56.111Z,5274.47998
2022-09-16T18:40:58.392Z,6809.91113
2022-09-16T18:56:00.764Z,8212.21289
2022-09-16T19:11:02.946Z,8299.69824
2022-09-16T19:26:05.254Z,3562.80957
2022-09-16T19:41:07.586Z,5328.99951
2022-09-16T19:56:09.859Z,9170.74805
2022-09-16T20:11:12.197Z,3832.87329
2022-09-16T20:26:14.446Z,8644.56836
2022-09-16T20:41:16.642Z,3661.7063
2022-09-16T20:56:18.911Z,3096.22119
2022-09-16T21:11:21.167Z,8375.77246
2022-09-16T21:26:23.805Z,5003.14844
2022-09-16T21:41:26.161Z,3674.38525
2022-09-16T21:56:28.431Z,598.45062
2022-09-16T22:11:30.634Z,1143.64929
2022-09-16T22:26:32.836Z,436.15891
2022-09-16T22:41:35.039Z,995.3045
2022-09-16T22:56:37.268Z,1479.6438
2022-09-16T23:11:39.466Z,309.36853
2022-09-16T23:26:41.689Z,233.2943
2022-09-16T23:41:43.926Z,185.11395
2022-09-16T23:56:46.127Z,297.9574
